Air Navigation Services of Czech Republic  
Last data update:  01.04.2020 01:42:27 UTC česká verze
   METEO Page displayed:  01.04.2020 01:44:06 UTC  
help
METAR EDDB 010120Z 23006KT CAVOK M03/M08 Q1024 NOSIG=
METAR EDDC 010120Z 19003KT CAVOK M04/M08 Q1025=
METAR EDDE 010120Z 20007KT CAVOK M04/M09 Q1024=
METAR EDDF 010120Z 05006KT CAVOK 01/M08 Q1025 NOSIG=
METAR EDDM 010120Z 04003KT CAVOK M05/M06 Q1023 NOSIG=
METAR EDDN 010120Z 36002KT CAVOK M05/M09 Q1024=
METAR EDDP 010120Z 20005KT CAVOK M03/M08 Q1025 NOSIG=
METAR EDDT 010120Z 24007KT CAVOK M03/M08 Q1024=
METAR EDQM NIL
METAR EPBY 010130Z 23009KT CAVOK M03/M09 Q1022=
METAR EPGD 010130Z 25010KT 9999 FEW044 M02/M07 Q1018 R11/290095=
METAR EPKK 010130Z 20003KT 2000 0800W BCFG BR NSC M03/M03 Q1024=
METAR EPKT 010130Z 18002KT 3000 0600NW BCFG BR NSC M07/M07 Q1024=
METAR EPLL 010130Z 23002KT CAVOK M06/M09 Q1023=
METAR EPPO 010130Z 23005KT CAVOK M03/M07 Q1024=
METAR EPRZ 010130Z 25008KT 6000 NSC M04/M06 Q1024=
METAR EPWA 010130Z 24004KT 210V270 CAVOK M03/M06 Q1023 NOSIG=
METAR EPWR 010130Z VRB01KT CAVOK M04/M07 Q1025=
METAR LHBP 010130Z AUTO 07004KT 9999 NCD M00/M10 Q1023 NOSIG=
METAR LHSM 010115Z AUTO 34009KT 9000 NCD M01/M04 Q1024=
METAR LKBC 010130Z AUTO 00000KT CAVOK M05/M07 Q1024=
METAR LKCV 010130Z 15004KT CAVOK M05/M07 Q1025 NOSIG RMK BLU BLU=
METAR LKKB 010130Z 00000KT CAVOK M05/M09 Q1025 RMK BLU=
METAR LKKU NIL
METAR LKKV 010100Z 00000KT CAVOK M07/M11 Q1023 RMK REG QNH 1020=
METAR LKLN 010130Z AUTO 00000KT CAVOK M06/M08 Q1025=
METAR LKMT 010130Z VRB02KT 9999 FEW034 M04/M05 Q1024 NOSIG RMK REG QNH 1020=
METAR LKNA 010130Z 32004KT CAVOK M04/M07 Q1024 RMK BLU=
METAR LKPD 010130Z 21002KT CAVOK M05/M07 Q1025 RMK BLU=
METAR LKPJ 010130Z AUTO 29005KT CAVOK M04/M07 Q1025=
METAR LKPR 010130Z 23003KT CAVOK M06/M09 Q1024 NOSIG RMK REG QNH 1020=
METAR LKTB 010130Z 30002KT CAVOK M03/M06 Q1025 NOSIG RMK REG QNH 1020=
METAR LKVO NIL
METAR LOWI 010120Z AUTO VRB01KT 9999 NCD M03/M06 Q1023=
METAR LOWL 010120Z AUTO 11002KT 9999 NCD M02/M03 Q1025=
METAR LOWS 010120Z AUTO 16003KT 110V180 9999 NCD M03/M04 Q1023=
METAR LOWW 010120Z 32007KT CAVOK M02/M05 Q1025 NOSIG=
METAR LZIB 010130Z 23004KT CAVOK M02/M06 Q1024=
METAR LZKZ 010130Z 36002KT CAVOK M01/M09 Q1024=
METAR LZMC NIL
METAR LZPP 010130Z AUTO VRB02KT 9999 NCD M05/M07 Q1024=
METAR LZSL 010130Z 00000KT CAVOK M06/M08 Q1024=
METAR LZTT 010130Z 27006KT 9999 FEW050 M07/M11 Q1022=
METAR LZZI 010130Z 12002KT CAVOK M04/M06 Q1024=